Time;durP1;ratioP1;P1;durP2;ratioP2;P2;SDS_P1;SDS_P2;PMS_P1;PMS_P2;Temp;Humidity;BMP_temperature;BMP_pressure;BME280_temperature;BME280_humidity;BME280_pressure;Samples;Min_cycle;Max_cycle;Signal;HPM_P1;HPM_P2
2022/03/05 00:00:38;;;;;;;6.07;2.63;;;1.20;99.90;;;;;;4922016;29;20177;-83
2022/03/05 00:03:05;;;;;;;6.83;3.10;;;1.20;99.90;;;;;;4924037;29;20177;-83
2022/03/05 00:05:31;;;;;;;6.37;3.00;;;1.20;99.90;;;;;;4924365;29;20544;-83
2022/03/05 00:07:57;;;;;;;4.73;2.87;;;1.20;99.90;;;;;;4936751;29;20180;-83
2022/03/05 00:10:23;;;;;;;5.83;3.37;;;1.40;99.90;;;;;;4938891;29;20174;-83
2022/03/05 00:12:50;;;;;;;6.20;2.90;;;1.30;99.90;;;;;;4939652;29;20169;-83
2022/03/05 00:15:17;;;;;;;6.93;2.90;;;1.20;99.90;;;;;;4936016;29;20539;-83
2022/03/05 00:17:43;;;;;;;5.27;3.00;;;1.20;99.90;;;;;;4936975;29;20177;-83
2022/03/05 00:20:10;;;;;;;8.07;2.97;;;1.00;99.90;;;;;;4920284;29;20379;-84
2022/03/05 00:22:36;;;;;;;5.53;2.90;;;1.00;99.90;;;;;;4920588;29;20188;-84
2022/03/05 00:25:03;;;;;;;4.07;2.73;;;0.90;99.90;;;;;;4928551;29;20182;-83
2022/03/05 00:27:29;;;;;;;5.43;2.93;;;0.90;99.90;;;;;;4935605;29;20183;-83
2022/03/05 00:29:55;;;;;;;7.00;3.40;;;1.00;99.90;;;;;;4936491;29;20288;-83
2022/03/05 00:32:21;;;;;;;9.63;3.30;;;1.10;99.90;;;;;;4938653;29;20600;-83
2022/03/05 00:34:47;;;;;;;6.47;3.60;;;1.10;99.90;;;;;;4928985;29;20189;-83
2022/03/05 00:37:13;;;;;;;5.53;3.57;;;1.10;99.90;;;;;;4919841;29;20209;-83
2022/03/05 00:39:39;;;;;;;6.10;3.40;;;0.90;99.90;;;;;;4936885;29;20208;-83
2022/03/05 00:42:05;;;;;;;7.00;3.57;;;1.00;99.90;;;;;;4936239;29;20184;-83
2022/03/05 00:44:32;;;;;;;7.70;3.73;;;0.90;99.90;;;;;;4937581;29;20177;-83
2022/03/05 00:46:58;;;;;;;10.17;3.43;;;0.90;99.90;;;;;;4937500;29;20185;-83
2022/03/05 00:49:25;;;;;;;8.73;4.17;;;0.90;99.90;;;;;;4940376;29;20236;-82
2022/03/05 00:51:52;;;;;;;7.67;3.67;;;0.90;99.90;;;;;;4923477;29;20181;-82
2022/03/05 00:54:18;;;;;;;8.53;3.53;;;0.90;99.90;;;;;;4923752;29;20185;-83
2022/03/05 00:56:44;;;;;;;6.43;3.03;;;0.70;99.90;;;;;;4934468;29;20186;-83
2022/03/05 00:59:10;;;;;;;5.57;2.63;;;0.70;99.90;;;;;;4919662;29;20213;-83
2022/03/05 01:01:36;;;;;;;6.73;2.87;;;0.70;99.90;;;;;;4937538;29;20180;-82
2022/03/05 01:04:02;;;;;;;7.97;3.13;;;0.60;99.90;;;;;;4934562;29;20663;-82
2022/03/05 01:06:30;;;;;;;6.57;3.30;;;0.60;99.90;;;;;;4939807;28;20193;-83
2022/03/05 01:08:57;;;;;;;5.13;3.00;;;0.50;99.90;;;;;;4949677;29;20189;-83
2022/03/05 01:11:22;;;;;;;8.30;3.10;;;0.50;99.90;;;;;;4949072;29;20245;-82
2022/03/05 01:13:49;;;;;;;7.00;3.00;;;0.60;99.90;;;;;;4943270;29;20204;-83
2022/03/05 01:16:15;;;;;;;7.63;3.27;;;0.50;99.90;;;;;;4938084;29;20231;-83
2022/03/05 01:18:40;;;;;;;6.40;3.00;;;0.40;99.90;;;;;;4918916;29;20276;-83
2022/03/05 01:21:06;;;;;;;6.53;3.23;;;0.40;99.90;;;;;;4932748;29;20236;-83
2022/03/05 01:23:32;;;;;;;8.63;3.03;;;0.40;99.90;;;;;;4933892;29;20184;-83
2022/03/05 01:25:58;;;;;;;7.00;2.93;;;0.40;99.90;;;;;;4935606;29;20208;-83
2022/03/05 01:28:24;;;;;;;6.67;3.00;;;0.50;99.90;;;;;;4937310;29;20204;-83
2022/03/05 01:30:49;;;;;;;7.30;3.50;;;0.40;99.90;;;;;;4934502;29;20173;-83
2022/03/05 01:33:17;;;;;;;8.27;3.50;;;0.60;99.90;;;;;;4918704;29;20669;-83
2022/03/05 01:35:46;;;;;;;7.03;2.80;;;0.50;99.90;;;;;;4935610;29;20186;-83
2022/03/05 01:38:12;;;;;;;7.97;2.93;;;0.50;99.90;;;;;;4913877;29;20367;-83
2022/03/05 01:40:39;;;;;;;6.73;3.17;;;0.60;99.90;;;;;;4918772;29;20193;-83
2022/03/05 01:43:05;;;;;;;5.13;2.87;;;0.50;99.90;;;;;;4937740;29;20192;-83
2022/03/05 01:45:31;;;;;;;9.10;3.10;;;0.40;99.90;;;;;;4935740;29;20243;-83
2022/03/05 01:47:58;;;;;;;5.67;2.90;;;0.30;99.90;;;;;;4936217;29;20173;-84
2022/03/05 01:50:24;;;;;;;7.17;2.80;;;0.50;99.90;;;;;;4935369;29;20186;-83
2022/03/05 01:52:50;;;;;;;7.80;3.17;;;0.50;99.90;;;;;;4942327;29;20205;-83
2022/03/05 01:55:15;;;;;;;7.27;2.90;;;0.60;99.90;;;;;;4929515;29;20585;-84
2022/03/05 01:57:42;;;;;;;5.33;2.87;;;0.70;99.90;;;;;;4931334;29;20189;-83
2022/03/05 02:00:10;;;;;;;4.33;2.70;;;0.60;99.90;;;;;;4919445;29;20212;-83
2022/03/05 02:02:40;;;;;;;6.07;2.70;;;0.70;99.90;;;;;;4937953;29;20224;-83
2022/03/05 02:05:06;;;;;;;8.40;3.10;;;0.60;99.90;;;;;;4924190;29;20184;-83
2022/03/05 02:07:32;;;;;;;5.47;3.10;;;0.50;99.90;;;;;;4917287;29;20179;-83
2022/03/05 02:09:58;;;;;;;4.93;3.10;;;0.60;99.90;;;;;;4932683;29;20261;-82
2022/03/05 02:12:28;;;;;;;7.80;3.13;;;0.70;99.90;;;;;;4937590;29;20204;-82
2022/03/05 02:14:54;;;;;;;6.13;3.57;;;0.70;99.90;;;;;;4940321;29;20253;-82
2022/03/05 02:17:20;;;;;;;7.03;4.60;;;0.50;99.90;;;;;;4928245;29;20185;-82
2022/03/05 02:19:45;;;;;;;7.73;4.43;;;0.30;99.90;;;;;;4926661;29;20208;-82
2022/03/05 02:22:11;;;;;;;7.57;4.50;;;0.20;99.90;;;;;;4935062;29;20180;-83
2022/03/05 02:24:39;;;;;;;9.13;5.20;;;0.10;99.90;;;;;;4941601;29;20161;-83
2022/03/05 02:27:05;;;;;;;11.27;5.83;;;0.20;99.90;;;;;;4940366;29;20185;-83
2022/03/05 02:29:32;;;;;;;11.30;6.03;;;0.10;99.90;;;;;;4919811;29;20233;-83
2022/03/05 02:31:58;;;;;;;9.77;4.93;;;0.10;99.90;;;;;;4926270;29;20180;-84
2022/03/05 02:34:24;;;;;;;10.63;5.37;;;0.10;99.90;;;;;;4919261;29;20191;-82
2022/03/05 02:36:51;;;;;;;14.30;5.43;;;0.10;99.90;;;;;;4940750;29;20222;-83
2022/03/05 02:39:17;;;;;;;8.97;5.13;;;0.10;99.90;;;;;;4935191;29;20216;-83
2022/03/05 02:41:43;;;;;;;60.23;27.83;;;0.10;99.90;;;;;;4943759;29;20177;-83
2022/03/05 02:44:10;;;;;;;10.53;5.27;;;0.10;99.90;;;;;;4928711;29;20238;-83
2022/03/05 02:46:36;;;;;;;8.97;4.83;;;0.30;99.90;;;;;;4934883;29;20204;-82
2022/03/05 02:49:05;;;;;;;8.93;4.43;;;0.40;99.90;;;;;;4933858;29;20227;-82
2022/03/05 02:51:34;;;;;;;10.57;4.50;;;0.50;99.90;;;;;;4973702;23;20239;-85
2022/03/05 02:54:03;;;;;;;9.10;4.13;;;0.50;99.90;;;;;;4971109;28;20180;-84
2022/03/05 02:56:29;;;;;;;10.07;4.33;;;0.40;99.90;;;;;;4956095;28;20209;-83
2022/03/05 02:59:01;;;;;;;7.47;3.57;;;0.30;99.90;;;;;;4956359;28;20208;-84
2022/03/05 03:01:33;;;;;;;6.17;3.33;;;0.50;99.90;;;;;;4947597;28;20202;-85
2022/03/05 03:03:59;;;;;;;6.63;3.37;;;0.50;99.90;;;;;;4953659;28;20240;-85
2022/03/05 03:06:25;;;;;;;6.47;2.83;;;0.50;99.90;;;;;;4956164;28;20200;-85
2022/03/05 03:08:50;;;;;;;9.60;2.97;;;0.40;99.90;;;;;;4956807;28;20186;-84
2022/03/05 03:11:16;;;;;;;5.53;2.67;;;0.40;99.90;;;;;;4965367;28;20200;-84
2022/03/05 03:13:42;;;;;;;5.00;2.83;;;0.50;99.90;;;;;;4958531;28;20276;-83
2022/03/05 03:16:09;;;;;;;5.87;2.77;;;0.50;99.90;;;;;;4958555;28;20236;-83
2022/03/05 03:18:34;;;;;;;8.13;3.27;;;0.60;99.90;;;;;;4957624;28;20213;-84
2022/03/05 03:21:00;;;;;;;8.00;2.90;;;0.50;99.90;;;;;;4957036;28;20214;-85
2022/03/05 03:23:26;;;;;;;6.47;2.70;;;0.50;99.90;;;;;;4961321;28;20189;-84
2022/03/05 03:25:52;;;;;;;8.30;2.60;;;0.60;99.90;;;;;;4961230;28;20190;-83
2022/03/05 03:28:21;;;;;;;7.47;2.63;;;0.60;99.90;;;;;;4960255;28;20174;-83
2022/03/05 03:30:47;;;;;;;4.33;2.37;;;0.50;99.90;;;;;;4973712;28;20206;-83
2022/03/05 03:33:14;;;;;;;6.03;2.50;;;0.50;99.90;;;;;;4963855;28;20198;-83
2022/03/05 03:35:40;;;;;;;3.27;2.10;;;0.60;99.90;;;;;;4962488;28;20244;-84
2022/03/05 03:38:06;;;;;;;4.80;2.30;;;0.50;99.90;;;;;;4965297;28;20248;-82
2022/03/05 03:40:31;;;;;;;5.77;2.53;;;0.40;99.90;;;;;;4968796;28;20188;-84
2022/03/05 03:42:57;;;;;;;6.03;2.70;;;0.40;99.90;;;;;;4968483;28;20255;-83
2022/03/05 03:45:23;;;;;;;4.43;2.57;;;0.30;99.90;;;;;;4987934;28;20214;-84
2022/03/05 03:47:51;;;;;;;6.63;2.70;;;0.40;99.90;;;;;;4980127;28;20201;-85
2022/03/05 03:50:19;;;;;;;6.60;2.63;;;0.30;99.90;;;;;;4985777;28;20176;-84
2022/03/05 03:52:46;;;;;;;6.07;2.67;;;0.30;99.90;;;;;;4961744;28;20208;-85
2022/03/05 03:55:14;;;;;;;5.47;2.70;;;0.10;99.90;;;;;;4966046;28;20179;-82
2022/03/05 03:57:41;;;;;;;8.77;2.50;;;0.00;99.90;;;;;;4968126;28;20252;-83
2022/03/05 04:00:10;;;;;;;4.97;2.60;;;0.00;99.90;;;;;;4983618;28;20200;-83
2022/03/05 04:02:40;;;;;;;6.97;2.80;;;-0.10;99.90;;;;;;4969550;28;20223;-83
2022/03/05 04:05:06;;;;;;;6.40;2.63;;;0.10;99.90;;;;;;4965195;28;20174;-85
2022/03/05 04:10:16;;;;;;;6.07;2.97;;;0.10;99.90;;;;;;4986736;28;20181;-84
2022/03/05 04:12:42;;;;;;;6.70;2.77;;;0.10;99.90;;;;;;4978658;28;20193;-83
2022/03/05 04:15:09;;;;;;;5.93;3.07;;;0.30;99.90;;;;;;4986163;28;20175;-83
2022/03/05 04:17:37;;;;;;;4.77;2.93;;;0.30;99.90;;;;;;4980152;28;20191;-84
2022/03/05 04:20:04;;;;;;;6.10;3.30;;;0.20;99.90;;;;;;4970430;28;20226;-83
2022/03/05 04:22:30;;;;;;;6.43;2.90;;;0.10;99.90;;;;;;4965503;28;20216;-83
2022/03/05 04:24:57;;;;;;;6.40;3.27;;;0.20;99.90;;;;;;4968934;28;20229;-83
2022/03/05 04:27:22;;;;;;;5.63;3.30;;;0.10;99.90;;;;;;4971567;28;20198;-82
2022/03/05 04:29:48;;;;;;;6.17;2.97;;;-0.10;99.90;;;;;;4970352;28;20204;-84
2022/03/05 04:32:15;;;;;;;6.63;3.17;;;-0.20;99.90;;;;;;4971452;28;20195;-83
2022/03/05 04:34:43;;;;;;;8.17;3.20;;;-0.10;99.90;;;;;;4949561;28;20239;-85
2022/03/05 04:37:08;;;;;;;10.00;3.17;;;0.00;99.90;;;;;;4951058;28;20208;-83
2022/03/05 04:39:34;;;;;;;5.97;3.33;;;-0.10;99.90;;;;;;4966496;28;20204;-83
2022/03/05 04:42:00;;;;;;;5.47;3.10;;;-0.10;99.90;;;;;;4977738;28;20199;-83
2022/03/05 04:44:26;;;;;;;7.20;2.60;;;0.00;99.90;;;;;;4963162;28;20180;-84
2022/03/05 04:46:52;;;;;;;6.70;3.37;;;0.10;99.90;;;;;;4978465;28;20179;-85
2022/03/05 04:49:18;;;;;;;6.80;3.10;;;0.30;99.90;;;;;;4968436;28;20182;-82
2022/03/05 04:51:43;;;;;;;4.63;3.00;;;0.30;99.90;;;;;;4968965;28;20211;-82
2022/03/05 04:54:09;;;;;;;8.00;2.80;;;0.20;99.90;;;;;;4971579;28;20207;-82
2022/03/05 04:56:36;;;;;;;7.10;3.40;;;0.20;99.90;;;;;;4969400;28;20187;-83
2022/03/05 04:59:02;;;;;;;6.83;3.20;;;0.30;99.90;;;;;;4968900;28;20210;-84
2022/03/05 05:01:28;;;;;;;6.70;3.27;;;0.20;99.90;;;;;;4967676;28;20211;-83
2022/03/05 05:03:59;;;;;;;8.37;3.30;;;0.10;99.90;;;;;;4973357;28;20227;-84
2022/03/05 05:06:25;;;;;;;8.83;3.50;;;0.10;99.90;;;;;;4972963;28;20208;-84
2022/03/05 05:08:51;;;;;;;7.80;3.50;;;0.10;99.90;;;;;;4962680;28;20178;-84
2022/03/05 05:11:17;;;;;;;5.93;3.40;;;0.00;99.90;;;;;;4968487;28;20204;-82
2022/03/05 05:13:43;;;;;;;10.00;3.57;;;0.00;99.90;;;;;;4979423;28;20191;-82
2022/03/05 05:16:10;;;;;;;7.77;3.77;;;0.00;99.90;;;;;;4968782;28;20189;-83
2022/03/05 05:18:36;;;;;;;8.50;3.30;;;-0.10;99.90;;;;;;4964711;28;20210;-83
2022/03/05 05:21:03;;;;;;;11.60;3.60;;;0.00;99.90;;;;;;4964336;28;20290;-83
2022/03/05 05:23:29;;;;;;;7.77;4.03;;;0.00;99.90;;;;;;4966338;28;20176;-82
2022/03/05 05:25:55;;;;;;;8.83;3.73;;;0.00;99.90;;;;;;4966474;28;20172;-82
2022/03/05 05:28:22;;;;;;;9.93;4.03;;;-0.10;99.90;;;;;;4983781;28;20183;-83
2022/03/05 05:30:48;;;;;;;6.60;3.40;;;0.00;99.90;;;;;;4967742;28;20248;-82
2022/03/05 05:33:14;;;;;;;6.87;3.27;;;-0.10;99.90;;;;;;4970343;28;20166;-83
2022/03/05 05:35:42;;;;;;;8.00;3.67;;;0.20;99.90;;;;;;4974938;28;20184;-83
2022/03/05 05:38:08;;;;;;;6.40;3.30;;;0.20;99.90;;;;;;4985392;28;20160;-83
2022/03/05 05:40:43;;;;;;;6.73;3.53;;;0.00;99.90;;;;;;4958735;28;20227;-81
2022/03/05 05:43:09;;;;;;;7.07;3.63;;;-0.20;99.90;;;;;;4967002;28;20198;-81
2022/03/05 05:45:34;;;;;;;7.80;3.90;;;-0.20;99.90;;;;;;4980876;28;20189;-81
2022/03/05 05:48:02;;;;;;;8.13;3.83;;;-0.30;99.90;;;;;;4990730;28;20181;-81
2022/03/05 05:50:28;;;;;;;7.87;3.63;;;-0.40;99.90;;;;;;4980216;28;20195;-82
2022/03/05 05:52:55;;;;;;;8.00;3.60;;;-0.40;99.90;;;;;;4989496;28;20271;-82
2022/03/05 05:55:21;;;;;;;9.47;3.57;;;-0.40;99.90;;;;;;4988165;28;20183;-82
2022/03/05 05:57:46;;;;;;;7.17;3.83;;;-0.30;99.90;;;;;;4968500;28;20177;-82
2022/03/05 06:00:12;;;;;;;5.73;3.60;;;-0.40;99.90;;;;;;4971980;28;20199;-82
2022/03/05 06:02:42;;;;;;;7.63;3.90;;;-0.40;99.90;;;;;;4981689;28;20235;-83
2022/03/05 06:05:08;;;;;;;6.27;3.73;;;-0.50;99.90;;;;;;4965754;28;20195;-82
2022/03/05 06:07:36;;;;;;;5.23;3.80;;;-0.30;99.90;;;;;;4971984;28;20188;-82
2022/03/05 06:10:02;;;;;;;8.97;4.27;;;-0.40;99.90;;;;;;4970839;28;20202;-83
2022/03/05 06:12:28;;;;;;;6.70;3.73;;;-0.30;99.90;;;;;;4965029;28;20236;-82
2022/03/05 06:14:53;;;;;;;6.57;3.47;;;-0.40;99.90;;;;;;4969222;29;20164;-83
2022/03/05 06:17:19;;;;;;;8.13;4.20;;;-0.30;99.90;;;;;;4978479;28;20172;-83
2022/03/05 06:19:45;;;;;;;7.30;4.40;;;-0.30;99.90;;;;;;4977755;28;20327;-83
2022/03/05 06:22:11;;;;;;;9.57;4.13;;;-0.20;99.90;;;;;;4991194;28;20195;-82
2022/03/05 06:24:36;;;;;;;9.23;4.40;;;-0.20;99.90;;;;;;4964253;28;20176;-82
2022/03/05 06:27:02;;;;;;;11.63;4.80;;;0.00;99.90;;;;;;4970266;28;20180;-82
2022/03/05 06:29:28;;;;;;;6.63;4.00;;;-0.20;99.90;;;;;;4970423;28;20194;-82
2022/03/05 06:31:54;;;;;;;6.67;4.10;;;-0.20;99.90;;;;;;4971259;28;20224;-83
2022/03/05 06:34:20;;;;;;;8.80;4.13;;;-0.20;99.90;;;;;;4973423;28;20226;-83
2022/03/05 06:36:46;;;;;;;8.77;4.30;;;-0.20;99.90;;;;;;4975787;28;20198;-83
2022/03/05 06:39:11;;;;;;;8.80;4.10;;;-0.20;99.90;;;;;;4990477;28;20215;-84
2022/03/05 06:41:37;;;;;;;7.50;4.33;;;-0.20;99.90;;;;;;4983936;28;20203;-83
2022/03/05 06:44:03;;;;;;;8.93;4.13;;;-0.30;99.90;;;;;;4992081;28;20307;-82
2022/03/05 06:46:31;;;;;;;8.20;4.23;;;-0.10;99.90;;;;;;4973400;28;20182;-83
2022/03/05 06:48:57;;;;;;;6.90;3.97;;;0.00;99.90;;;;;;4980322;28;20195;-83
2022/03/05 06:51:23;;;;;;;8.37;3.90;;;0.10;99.90;;;;;;4966187;28;20245;-82
2022/03/05 06:53:49;;;;;;;8.73;4.13;;;0.00;99.90;;;;;;4980134;28;20179;-83
2022/03/05 06:56:14;;;;;;;9.53;4.37;;;0.00;99.90;;;;;;4967462;28;20229;-82
2022/03/05 06:58:40;;;;;;;7.93;4.37;;;-0.10;99.90;;;;;;4970211;28;20214;-82
2022/03/05 07:01:06;;;;;;;8.73;4.07;;;0.00;99.90;;;;;;4981853;28;20199;-83
2022/03/05 07:03:32;;;;;;;8.43;3.90;;;0.00;99.90;;;;;;4966745;28;20207;-83
2022/03/05 07:05:57;;;;;;;7.37;3.50;;;-0.10;99.90;;;;;;4978127;28;20179;-83
2022/03/05 07:08:23;;;;;;;9.20;3.90;;;-0.20;99.90;;;;;;4979541;28;20279;-83
2022/03/05 07:10:49;;;;;;;6.33;3.60;;;-0.10;99.90;;;;;;4974488;28;20201;-83
2022/03/05 07:13:15;;;;;;;6.60;3.13;;;-0.10;99.90;;;;;;4953309;28;20180;-83
2022/03/05 07:15:41;;;;;;;7.27;3.70;;;-0.10;99.90;;;;;;4959491;28;20627;-83
2022/03/05 07:18:06;;;;;;;8.30;4.00;;;0.00;99.90;;;;;;4958485;28;20204;-82
2022/03/05 07:20:32;;;;;;;8.20;3.60;;;0.00;99.90;;;;;;4960561;28;20240;-83
2022/03/05 07:22:58;;;;;;;9.07;3.90;;;0.00;99.90;;;;;;4961355;28;20175;-83
2022/03/05 07:25:24;;;;;;;6.83;3.63;;;-0.10;99.90;;;;;;4967916;28;20255;-83
2022/03/05 07:27:49;;;;;;;8.67;3.97;;;0.10;99.90;;;;;;4962840;28;20179;-82
2022/03/05 07:30:15;;;;;;;7.03;3.37;;;0.10;99.90;;;;;;4984119;28;20590;-82
2022/03/05 07:32:44;;;;;;;11.47;3.93;;;0.20;99.90;;;;;;4973707;28;20186;-82
2022/03/05 07:35:10;;;;;;;7.27;3.60;;;0.20;99.90;;;;;;4960427;28;20186;-82
2022/03/05 07:37:36;;;;;;;7.77;3.60;;;0.20;99.90;;;;;;4972570;28;20183;-82
2022/03/05 07:40:04;;;;;;;7.53;3.83;;;0.10;99.90;;;;;;4966145;28;20232;-82
2022/03/05 07:42:30;;;;;;;7.60;3.90;;;0.30;99.90;;;;;;4970440;28;20184;-82
2022/03/05 07:44:57;;;;;;;11.43;3.63;;;0.40;99.90;;;;;;4982501;28;20176;-82
2022/03/05 07:47:23;;;;;;;9.03;3.97;;;0.40;99.90;;;;;;4963045;28;20180;-82
2022/03/05 07:49:49;;;;;;;5.97;3.73;;;0.50;99.90;;;;;;4962943;28;20176;-82
2022/03/05 07:52:15;;;;;;;9.40;4.00;;;0.50;99.90;;;;;;4961447;28;20211;-82
2022/03/05 07:54:43;;;;;;;9.30;4.13;;;0.40;99.90;;;;;;4968599;28;20258;-83
2022/03/05 07:57:09;;;;;;;10.47;4.17;;;0.30;99.90;;;;;;4978194;28;20182;-83
2022/03/05 07:59:38;;;;;;;7.20;3.90;;;0.30;99.90;;;;;;4972085;28;20210;-82
2022/03/05 08:02:36;;;;;;;7.07;4.53;;;0.30;99.90;;;;;;4956419;28;20204;-83
2022/03/05 08:05:02;;;;;;;8.57;4.20;;;0.40;99.90;;;;;;4975615;28;20164;-83
2022/03/05 08:07:27;;;;;;;7.23;3.83;;;0.50;99.90;;;;;;4971662;28;20175;-82
2022/03/05 08:09:53;;;;;;;7.27;3.80;;;0.70;99.90;;;;;;4968037;28;20246;-84
2022/03/05 08:12:19;;;;;;;10.43;3.97;;;0.60;99.90;;;;;;4975583;28;20203;-83
2022/03/05 08:14:55;;;;;;;;;;;;;;;;;;;;;
2022/03/05 08:17:23;;;;;;;8.33;4.13;;;0.60;99.90;;;;;;4982250;28;20179;-83
2022/03/05 08:19:52;;;;;;;9.23;4.43;;;0.70;99.90;;;;;;4971816;28;20271;-82
2022/03/05 08:22:18;;;;;;;7.13;3.73;;;0.70;99.90;;;;;;4982350;28;20202;-83
2022/03/05 08:24:44;;;;;;;7.57;4.30;;;0.70;99.90;;;;;;4981871;28;20176;-83
2022/03/05 08:27:09;;;;;;;7.13;4.53;;;0.80;99.90;;;;;;4981984;28;20168;-83
2022/03/05 08:29:37;;;;;;;8.43;3.83;;;0.80;99.90;;;;;;4966531;28;20171;-83
2022/03/05 08:32:03;;;;;;;6.90;4.70;;;0.90;99.90;;;;;;4965099;28;20223;-84
2022/03/05 08:34:29;;;;;;;8.50;4.50;;;1.10;99.90;;;;;;4961851;28;20188;-83
2022/03/05 08:36:55;;;;;;;11.87;4.40;;;1.10;99.90;;;;;;4963860;28;20180;-83
2022/03/05 08:39:20;;;;;;;10.30;4.17;;;1.10;99.90;;;;;;4962950;28;20207;-83
2022/03/05 08:41:47;;;;;;;10.20;4.40;;;1.10;99.90;;;;;;4957273;28;20224;-83
2022/03/05 08:44:13;;;;;;;10.97;5.47;;;1.20;99.90;;;;;;4980556;28;20204;-81
2022/03/05 08:46:40;;;;;;;15.73;5.87;;;1.30;99.90;;;;;;4955210;28;20176;-82
2022/03/05 08:49:06;;;;;;;9.67;5.07;;;1.40;99.90;;;;;;4963437;28;20195;-83
2022/03/05 08:51:31;;;;;;;9.70;4.90;;;1.40;99.90;;;;;;4965170;28;20211;-83
2022/03/05 08:53:57;;;;;;;11.63;4.83;;;1.50;99.90;;;;;;4968148;28;20176;-82
2022/03/05 08:56:23;;;;;;;10.63;4.90;;;1.50;99.90;;;;;;4963705;28;20209;-81
2022/03/05 08:58:49;;;;;;;11.90;5.43;;;1.50;99.90;;;;;;4981259;23;20276;-82
2022/03/05 09:01:15;;;;;;;12.73;5.20;;;1.50;99.90;;;;;;4961081;29;20168;-83
2022/03/05 09:03:41;;;;;;;8.93;5.40;;;1.50;99.90;;;;;;4960946;29;20173;-82
2022/03/05 09:06:08;;;;;;;10.90;5.07;;;1.60;99.90;;;;;;4976531;28;20185;-82
2022/03/05 09:08:37;;;;;;;9.77;5.03;;;1.60;99.90;;;;;;4960780;28;20200;-82
2022/03/05 09:11:07;;;;;;;9.60;5.13;;;1.60;99.90;;;;;;4943031;28;20230;-80
2022/03/05 09:13:32;;;;;;;9.93;6.30;;;1.70;99.90;;;;;;4952259;28;20181;-82
2022/03/05 09:15:58;;;;;;;10.37;5.47;;;1.70;99.90;;;;;;4967797;28;20191;-83
2022/03/05 09:18:24;;;;;;;10.30;5.60;;;1.80;99.90;;;;;;4963224;28;20183;-83
2022/03/05 09:20:50;;;;;;;10.03;5.23;;;1.80;99.90;;;;;;4946638;28;20263;-82
2022/03/05 09:23:15;;;;;;;10.40;4.90;;;1.90;99.90;;;;;;4947400;28;20211;-83
2022/03/05 09:25:41;;;;;;;8.33;5.07;;;1.90;99.90;;;;;;4949252;28;20176;-82
2022/03/05 09:28:07;;;;;;;11.63;5.73;;;1.90;99.90;;;;;;4947178;28;20287;-82
2022/03/05 09:30:34;;;;;;;8.53;4.97;;;1.90;99.90;;;;;;4934408;28;20335;-81
2022/03/05 09:33:00;;;;;;;15.00;6.03;;;2.00;99.90;;;;;;4947375;28;20172;-82
2022/03/05 09:35:26;;;;;;;12.03;6.27;;;2.20;99.90;;;;;;4948970;28;20179;-83
2022/03/05 09:37:51;;;;;;;9.13;5.77;;;2.10;99.90;;;;;;4947611;28;20514;-83
2022/03/05 09:40:17;;;;;;;14.03;6.50;;;2.20;99.90;;;;;;4946402;28;20259;-83
2022/03/05 09:42:44;;;;;;;12.80;6.33;;;2.30;99.90;;;;;;4947335;28;20350;-82
2022/03/05 09:45:12;;;;;;;12.13;6.37;;;2.30;99.90;;;;;;4945110;28;20207;-83
2022/03/05 09:47:39;;;;;;;12.60;6.30;;;2.40;99.90;;;;;;4936951;29;20177;-83
2022/03/05 09:50:06;;;;;;;13.83;6.93;;;2.40;99.90;;;;;;4955668;28;20200;-84
2022/03/05 09:52:32;;;;;;;14.53;7.40;;;2.40;99.90;;;;;;4961308;28;20183;-84
2022/03/05 09:54:58;;;;;;;11.03;6.07;;;2.40;99.90;;;;;;4947657;28;20555;-83
2022/03/05 09:57:24;;;;;;;12.13;6.33;;;2.50;99.90;;;;;;4946975;28;20184;-83
2022/03/05 09:59:50;;;;;;;11.30;6.77;;;2.70;99.90;;;;;;4943432;28;20359;-83
2022/03/05 10:02:18;;;;;;;15.00;7.63;;;2.80;99.90;;;;;;4962567;28;20172;-83
2022/03/05 10:04:45;;;;;;;12.20;6.67;;;2.90;99.90;;;;;;4944927;28;20184;-83
2022/03/05 10:07:12;;;;;;;17.40;7.63;;;2.90;99.90;;;;;;4941313;28;20175;-84
2022/03/05 10:09:39;;;;;;;12.73;7.20;;;3.00;99.90;;;;;;4927923;29;20207;-83
2022/03/05 10:12:23;;;;;;;11.30;6.97;;;3.10;99.90;;;;;;4944773;28;20224;-84
2022/03/05 10:15:13;;;;;;;12.67;7.57;;;3.10;99.90;;;;;;4962745;28;20196;-83
2022/03/05 10:18:05;;;;;;;13.30;6.90;;;3.10;99.90;;;;;;4942576;28;20184;-82
2022/03/05 10:20:33;;;;;;;13.87;7.40;;;3.30;99.90;;;;;;4958728;28;20232;-82
2022/03/05 10:23:07;;;;;;;12.57;7.50;;;3.40;99.90;;;;;;4942991;28;20207;-84
2022/03/05 10:25:43;;;;;;;11.17;6.50;;;3.50;99.90;;;;;;4960544;28;20179;-84
2022/03/05 10:28:24;;;;;;;10.37;6.73;;;3.50;99.90;;;;;;4947883;28;20270;-84
2022/03/05 10:30:58;;;;;;;12.30;7.47;;;3.70;99.90;;;;;;4951527;28;20640;-83
2022/03/05 10:33:36;;;;;;;9.90;6.90;;;3.90;99.90;;;;;;4962333;28;20176;-83
2022/03/05 10:36:17;;;;;;;10.37;7.00;;;4.30;99.90;;;;;;4957626;28;20178;-83
2022/03/05 10:38:53;;;;;;;10.83;6.50;;;4.80;99.90;;;;;;4961188;28;20222;-83
2022/03/05 10:41:32;;;;;;;11.70;6.97;;;5.20;99.90;;;;;;4950070;28;20255;-83
2022/03/05 10:44:05;;;;;;;10.57;7.03;;;5.60;98.50;;;;;;4963907;28;20176;-83
2022/03/05 10:46:40;;;;;;;11.70;7.07;;;5.60;97.60;;;;;;4977968;28;20203;-84
2022/03/05 10:49:07;;;;;;;10.80;6.93;;;5.70;97.20;;;;;;4955633;28;20204;-84
2022/03/05 10:51:33;;;;;;;12.53;6.67;;;5.90;96.90;;;;;;4940687;28;20175;-83
2022/03/05 10:53:59;;;;;;;11.20;6.67;;;5.90;96.30;;;;;;4962594;28;20200;-84
2022/03/05 10:56:34;;;;;;;9.63;6.10;;;5.90;96.30;;;;;;4951949;29;20189;-83
2022/03/05 10:59:05;;;;;;;14.10;6.57;;;6.10;96.30;;;;;;4939982;29;20748;-84
2022/03/05 11:01:34;;;;;;;11.17;6.50;;;6.20;96.20;;;;;;4939734;29;20179;-84
2022/03/05 11:04:00;;;;;;;11.00;6.23;;;6.40;95.60;;;;;;4957351;28;20208;-84
2022/03/05 11:06:27;;;;;;;8.83;5.80;;;6.70;95.30;;;;;;4945010;28;20183;-84
2022/03/05 11:08:53;;;;;;;8.47;5.70;;;6.70;95.00;;;;;;4946137;28;20271;-84
2022/03/05 11:11:20;;;;;;;9.63;6.60;;;6.50;94.70;;;;;;4944759;28;20210;-84
2022/03/05 11:13:46;;;;;;;9.77;6.10;;;6.30;94.80;;;;;;4958770;28;20268;-83
2022/03/05 11:16:12;;;;;;;10.33;6.37;;;6.20;94.30;;;;;;4964719;28;20215;-84
2022/03/05 11:18:42;;;;;;;9.70;5.87;;;6.40;93.20;;;;;;4947308;28;20280;-84
2022/03/05 11:21:08;;;;;;;9.10;6.23;;;6.10;94.00;;;;;;4945247;28;20190;-85
2022/03/05 11:23:37;;;;;;;8.97;6.20;;;5.90;94.60;;;;;;4941509;28;20176;-85
2022/03/05 11:26:06;;;;;;;8.33;6.33;;;6.00;93.00;;;;;;4943839;28;20595;-83
2022/03/05 11:28:45;;;;;;;8.80;6.23;;;6.20;92.90;;;;;;4958571;28;20252;-84
2022/03/05 11:31:16;;;;;;;9.30;5.90;;;6.00;92.90;;;;;;4959442;28;20247;-84
2022/03/05 11:33:43;;;;;;;9.87;5.97;;;5.70;92.00;;;;;;4942594;28;20243;-84
2022/03/05 11:36:24;;;;;;;7.80;6.07;;;5.60;92.40;;;;;;4944897;28;20173;-82
2022/03/05 11:39:09;;;;;;;9.00;5.57;;;6.00;92.80;;;;;;4942739;28;20209;-85
2022/03/05 11:42:01;;;;;;;8.27;5.93;;;6.80;91.70;;;;;;4972966;28;20264;-83
2022/03/05 11:44:48;;;;;;;10.00;5.90;;;7.60;90.70;;;;;;4950859;29;20183;-83
2022/03/05 11:47:26;;;;;;;8.47;5.90;;;8.40;86.00;;;;;;4936045;28;20245;-83
2022/03/05 11:49:54;;;;;;;9.27;6.30;;;9.10;81.00;;;;;;4949780;28;20197;-84
2022/03/05 11:52:21;;;;;;;7.63;5.77;;;9.50;74.60;;;;;;4964180;28;20172;-85
2022/03/05 11:55:13;;;;;;;8.50;5.90;;;9.40;71.30;;;;;;4946554;28;20213;-84
2022/03/05 11:57:50;;;;;;;8.83;5.80;;;9.70;69.60;;;;;;4954432;29;20199;-84
2022/03/05 12:00:25;;;;;;;7.60;5.70;;;9.90;68.70;;;;;;4963787;28;20226;-83
2022/03/05 12:02:51;;;;;;;8.03;5.90;;;10.10;65.60;;;;;;4948872;28;20188;-84
2022/03/05 12:05:32;;;;;;;8.47;5.97;;;10.00;63.70;;;;;;4951570;28;20177;-84
2022/03/05 12:07:59;;;;;;;7.63;5.50;;;9.40;67.00;;;;;;4979500;28;20321;-85
2022/03/05 12:10:25;;;;;;;8.70;5.93;;;9.10;66.80;;;;;;4949429;28;20212;-85
2022/03/05 12:12:54;;;;;;;8.17;6.30;;;8.70;69.30;;;;;;4949053;28;20175;-84
2022/03/05 12:15:34;;;;;;;8.07;5.87;;;8.60;68.20;;;;;;4958173;28;20234;-83
2022/03/05 12:18:02;;;;;;;8.10;6.07;;;8.20;68.50;;;;;;4966405;28;20263;-83
2022/03/05 12:20:32;;;;;;;8.67;6.10;;;7.90;69.60;;;;;;4950405;29;20240;-83
2022/03/05 12:23:05;;;;;;;8.80;6.23;;;7.60;70.60;;;;;;4960869;28;20173;-83
2022/03/05 12:25:34;;;;;;;7.27;5.80;;;7.40;72.10;;;;;;4961207;29;20161;-84
2022/03/05 12:28:00;;;;;;;8.47;5.80;;;7.30;72.30;;;;;;4958799;28;20164;-83
2022/03/05 12:30:37;;;;;;;11.27;6.80;;;7.20;74.20;;;;;;4955549;28;20204;-84
2022/03/05 12:33:14;;;;;;;9.83;6.33;;;7.20;73.60;;;;;;4953805;28;20195;-84
2022/03/05 12:35:42;;;;;;;9.30;6.07;;;7.20;72.10;;;;;;4941215;28;20183;-82
2022/03/05 12:38:09;;;;;;;7.90;6.07;;;7.20;71.90;;;;;;4951782;28;20187;-83
2022/03/05 12:40:36;;;;;;;9.20;6.03;;;7.20;71.20;;;;;;4943580;28;20211;-83
2022/03/05 12:43:04;;;;;;;9.13;6.23;;;7.10;71.00;;;;;;4960083;28;20190;-82
2022/03/05 12:45:40;;;;;;;7.67;6.33;;;7.00;72.30;;;;;;4960599;28;20240;-84
2022/03/05 12:48:13;;;;;;;8.10;6.17;;;6.90;71.90;;;;;;4961784;28;20167;-84
2022/03/05 12:50:53;;;;;;;8.33;6.50;;;6.80;72.00;;;;;;4963014;28;20178;-83
2022/03/05 12:53:26;;;;;;;10.63;6.10;;;6.70;73.10;;;;;;4963054;28;20176;-83
2022/03/05 12:55:59;;;;;;;8.13;6.57;;;7.10;73.40;;;;;;4975624;28;20178;-83
2022/03/05 12:58:27;;;;;;;9.97;6.87;;;7.30;72.10;;;;;;4959229;28;20175;-82
2022/03/05 13:00:55;;;;;;;7.87;6.30;;;7.40;71.60;;;;;;4961828;28;20183;-84